createdAt,value
2022-08-23T00:01:57.830Z,18.20
2022-08-23T00:04:55.818Z,18.10
2022-08-23T00:07:54.937Z,18.20
2022-08-23T00:10:42.700Z,18.20
2022-08-23T00:13:47.397Z,18.20
2022-08-23T00:16:36.909Z,18.20
2022-08-23T00:19:24.470Z,18.20
2022-08-23T00:22:12.480Z,18.10
2022-08-23T00:25:01.895Z,18.10
2022-08-23T00:27:49.997Z,18.20
2022-08-23T00:30:39.853Z,18.10
2022-08-23T00:33:27.399Z,18.10
2022-08-23T00:36:15.153Z,18.10
2022-08-23T00:39:03.217Z,18.00
2022-08-23T00:41:51.468Z,18.00
2022-08-23T00:44:56.819Z,18.20
2022-08-23T00:47:46.477Z,18.00
2022-08-23T00:50:38.925Z,18.00
2022-08-23T00:53:27.202Z,17.90
2022-08-23T00:56:16.965Z,17.90
2022-08-23T00:59:04.926Z,17.80
2022-08-23T01:01:52.671Z,17.80
2022-08-23T01:04:44.646Z,17.80
2022-08-23T01:07:36.429Z,17.80
2022-08-23T01:10:27.913Z,17.80
2022-08-23T01:13:18.216Z,17.70
2022-08-23T01:16:08.948Z,17.60
2022-08-23T01:18:56.871Z,17.70
2022-08-23T01:21:48.563Z,17.60
2022-08-23T01:25:07.914Z,17.60
2022-08-23T01:27:47.981Z,17.50
2022-08-23T01:30:39.130Z,17.50
2022-08-23T01:33:26.670Z,17.50
2022-08-23T01:36:15.041Z,17.50
2022-08-23T01:39:05.517Z,17.40
2022-08-23T01:41:55.389Z,17.30
2022-08-23T01:44:42.966Z,17.30
2022-08-23T01:47:31.985Z,17.40
2022-08-23T01:50:19.958Z,18.20
2022-08-23T01:53:07.908Z,17.20
2022-08-23T01:55:55.292Z,17.10
2022-08-23T01:58:44.315Z,17.10
2022-08-23T02:01:32.697Z,17.00
2022-08-23T02:04:20.220Z,17.10
2022-08-23T02:07:07.949Z,17.00
2022-08-23T02:09:56.373Z,17.00
2022-08-23T02:12:43.830Z,16.90
2022-08-23T02:15:40.129Z,16.90
2022-08-23T02:18:27.929Z,16.80
2022-08-23T02:21:16.475Z,16.80
2022-08-23T02:24:06.445Z,16.80
2022-08-23T02:26:57.212Z,17.00
2022-08-23T02:29:47.117Z,16.90
2022-08-23T02:32:36.986Z,16.80
2022-08-23T02:35:25.152Z,16.80
2022-08-23T02:38:13.966Z,16.80
2022-08-23T02:41:02.425Z,16.80
2022-08-23T02:43:52.861Z,16.80
2022-08-23T02:46:41.894Z,16.80
2022-08-23T02:49:31.193Z,16.80
2022-08-23T02:52:18.908Z,16.80
2022-08-23T02:55:08.045Z,16.70
2022-08-23T02:57:55.687Z,16.60
2022-08-23T03:00:43.412Z,16.70
2022-08-23T03:03:31.186Z,16.60
2022-08-23T03:06:25.632Z,16.70
2022-08-23T03:09:14.392Z,16.70
2022-08-23T03:12:02.055Z,16.70
2022-08-23T03:14:52.230Z,16.70
2022-08-23T03:17:43.360Z,16.60
2022-08-23T03:20:30.798Z,16.60
2022-08-23T03:23:19.788Z,16.50
2022-08-23T03:26:08.358Z,16.50
2022-08-23T03:28:57.590Z,16.50
2022-08-23T03:31:51.727Z,16.40
2022-08-23T03:34:41.955Z,16.40
2022-08-23T03:37:30.504Z,16.40
2022-08-23T03:40:19.564Z,16.30
2022-08-23T03:43:07.173Z,16.40
2022-08-23T03:45:55.430Z,16.40
2022-08-23T03:48:43.726Z,16.70
2022-08-23T03:51:32.570Z,16.30
2022-08-23T03:54:22.721Z,16.30
2022-08-23T03:57:14.460Z,16.30
2022-08-23T04:00:03.413Z,16.30
2022-08-23T04:03:01.611Z,16.30
2022-08-23T04:05:50.007Z,16.20
2022-08-23T04:08:40.032Z,16.20
2022-08-23T04:11:28.491Z,16.20
2022-08-23T04:14:26.482Z,16.10
2022-08-23T04:17:14.295Z,16.10
2022-08-23T04:20:02.161Z,16.10
2022-08-23T04:22:53.249Z,16.00
2022-08-23T04:25:43.442Z,16.10
2022-08-23T04:28:31.548Z,16.00
2022-08-23T04:31:22.335Z,16.00
2022-08-23T04:34:10.715Z,16.00
2022-08-23T04:36:58.208Z,16.00
2022-08-23T04:40:03.195Z,16.00
2022-08-23T04:42:58.773Z,15.90
2022-08-23T04:45:47.354Z,16.00
2022-08-23T04:48:48.962Z,16.00
2022-08-23T04:51:38.601Z,16.00
2022-08-23T04:54:26.375Z,16.00
2022-08-23T04:57:45.065Z,16.10
2022-08-23T05:00:36.127Z,16.20
2022-08-23T05:03:23.709Z,16.10
2022-08-23T05:06:13.542Z,16.30
2022-08-23T05:09:02.253Z,16.30
2022-08-23T05:11:51.178Z,16.40
2022-08-23T05:14:39.167Z,16.40
2022-08-23T05:17:26.502Z,16.50
2022-08-23T05:20:15.046Z,16.60
2022-08-23T05:23:04.540Z,16.60
2022-08-23T05:25:54.421Z,16.60
2022-08-23T05:28:48.038Z,16.60
2022-08-23T05:31:37.342Z,16.70
2022-08-23T05:34:25.860Z,16.70
2022-08-23T05:37:16.985Z,16.70
2022-08-23T05:40:06.445Z,16.80
2022-08-23T05:43:00.681Z,16.70
2022-08-23T05:45:50.963Z,16.80
2022-08-23T05:48:39.193Z,16.70
2022-08-23T05:51:31.724Z,16.70
2022-08-23T05:54:19.517Z,16.70
2022-08-23T05:57:17.093Z,16.70
2022-08-23T06:00:05.806Z,17.60
2022-08-23T06:02:55.292Z,16.90
2022-08-23T06:05:43.241Z,17.20
2022-08-23T06:08:33.485Z,17.50
2022-08-23T06:11:22.606Z,17.30
2022-08-23T06:14:11.603Z,18.20
2022-08-23T06:16:59.606Z,19.90
2022-08-23T06:19:48.276Z,18.20
2022-08-23T06:22:51.077Z,18.20
2022-08-23T06:25:38.710Z,18.20
2022-08-23T06:28:50.734Z,18.20
2022-08-23T06:31:49.194Z,18.10
2022-08-23T06:34:44.109Z,18.10
2022-08-23T06:37:37.721Z,18.00
2022-08-23T06:40:29.258Z,18.00
2022-08-23T06:43:36.465Z,18.00
2022-08-23T06:46:36.978Z,18.10
2022-08-23T06:49:27.781Z,18.10
2022-08-23T06:52:15.923Z,18.10
2022-08-23T06:55:17.432Z,18.10
2022-08-23T06:58:24.898Z,18.10
2022-08-23T07:01:53.285Z,18.20
2022-08-23T07:05:04.131Z,18.30
2022-08-23T07:08:10.946Z,19.80
2022-08-23T07:10:59.222Z,18.40
2022-08-23T07:13:46.514Z,18.50
2022-08-23T07:16:34.962Z,18.60
2022-08-23T07:19:28.991Z,18.70
2022-08-23T07:22:21.160Z,18.80
2022-08-23T07:25:21.003Z,19.00
2022-08-23T07:28:13.775Z,19.20
2022-08-23T07:31:14.491Z,19.50
2022-08-23T07:34:04.653Z,19.70
2022-08-23T07:36:54.908Z,20.10
2022-08-23T07:39:44.718Z,20.20
2022-08-23T07:42:33.125Z,20.40
2022-08-23T07:45:23.072Z,20.50
2022-08-23T07:48:18.133Z,20.60
2022-08-23T07:51:30.918Z,20.70
2022-08-23T07:54:19.598Z,20.80
2022-08-23T07:57:29.600Z,20.90
2022-08-23T08:00:33.613Z,21.10
2022-08-23T08:03:36.410Z,21.10
2022-08-23T08:06:32.483Z,21.10
2022-08-23T08:09:22.680Z,21.20
2022-08-23T08:12:11.958Z,21.20
2022-08-23T08:15:04.944Z,22.60
2022-08-23T08:17:58.683Z,21.50
2022-08-23T08:21:09.093Z,21.60
2022-08-23T08:24:25.595Z,21.80
2022-08-23T08:27:23.696Z,21.90
2022-08-23T08:30:14.418Z,22.00
2022-08-23T08:33:04.389Z,21.90
2022-08-23T08:35:57.757Z,22.00
2022-08-23T08:38:50.687Z,22.10
2022-08-23T08:41:51.465Z,22.20
2022-08-23T08:44:55.068Z,22.20
2022-08-23T08:47:54.357Z,22.30
2022-08-23T08:50:44.771Z,22.40
2022-08-23T08:53:33.928Z,22.50
2022-08-23T08:56:37.785Z,22.70
2022-08-23T08:59:46.359Z,23.00
2022-08-23T09:02:36.134Z,23.10
2022-08-23T09:05:35.406Z,23.30
2022-08-23T09:08:35.181Z,23.40
2022-08-23T09:11:28.597Z,23.60
2022-08-23T09:14:38.149Z,23.70
2022-08-23T09:17:29.508Z,24.00
2022-08-23T09:20:20.690Z,24.30
2022-08-23T09:23:14.117Z,24.40
2022-08-23T09:26:04.763Z,24.60
2022-08-23T09:29:01.962Z,24.70
2022-08-23T09:31:50.993Z,24.80
2022-08-23T09:34:41.724Z,25.00
2022-08-23T09:37:30.979Z,25.20
2022-08-23T09:40:21.599Z,25.40
2022-08-23T09:43:13.176Z,25.80
2022-08-23T09:46:02.215Z,26.00
2022-08-23T09:48:55.357Z,25.90
2022-08-23T09:51:46.314Z,25.70
2022-08-23T09:54:39.029Z,25.50
2022-08-23T09:57:32.725Z,25.80
2022-08-23T10:00:25.213Z,25.90
2022-08-23T10:03:31.365Z,25.90
2022-08-23T10:06:34.358Z,25.80
2022-08-23T10:09:26.577Z,25.70
2022-08-23T10:12:14.434Z,25.80
2022-08-23T10:15:05.604Z,25.80
2022-08-23T10:17:58.430Z,26.10
2022-08-23T10:20:48.594Z,26.50
2022-08-23T10:23:43.240Z,26.80
2022-08-23T10:26:33.188Z,27.10
2022-08-23T10:29:45.729Z,27.30
2022-08-23T10:32:39.016Z,27.40
2022-08-23T10:35:32.661Z,27.50
2022-08-23T10:38:32.162Z,27.50
2022-08-23T10:41:35.305Z,27.40
2022-08-23T10:44:25.626Z,27.30
2022-08-23T10:47:18.207Z,27.30
2022-08-23T10:50:10.371Z,27.10
2022-08-23T10:52:59.229Z,26.70
2022-08-23T10:56:03.055Z,26.70
2022-08-23T10:58:57.483Z,26.60
2022-08-23T11:01:50.031Z,26.60
2022-08-23T11:04:45.636Z,26.80
2022-08-23T11:07:42.089Z,27.10
2022-08-23T11:10:56.519Z,27.20
2022-08-23T11:13:52.558Z,27.40
2022-08-23T11:16:44.450Z,27.60
2022-08-23T11:19:48.730Z,27.80
2022-08-23T11:22:56.029Z,27.80
2022-08-23T11:25:46.549Z,27.60
2022-08-23T11:28:43.473Z,27.50
2022-08-23T11:31:33.206Z,27.50
2022-08-23T11:34:29.478Z,27.70
2022-08-23T11:37:26.537Z,27.70
2022-08-23T11:40:33.072Z,27.70
2022-08-23T11:43:26.111Z,27.70
2022-08-23T11:46:15.853Z,28.00
2022-08-23T11:49:19.111Z,28.20
2022-08-23T11:52:22.715Z,28.40
2022-08-23T11:55:21.882Z,28.30
2022-08-23T11:58:18.396Z,27.70
2022-08-23T12:01:08.755Z,27.50
2022-08-23T12:03:58.695Z,27.40
2022-08-23T12:06:50.834Z,27.50
2022-08-23T12:09:56.092Z,27.40
2022-08-23T12:12:47.178Z,27.30
2022-08-23T12:15:49.868Z,27.20
2022-08-23T12:18:39.748Z,27.50
2022-08-23T12:21:29.037Z,27.50
2022-08-23T12:24:23.485Z,27.60
2022-08-23T12:27:14.684Z,28.00
2022-08-23T12:30:05.661Z,28.30
2022-08-23T12:32:56.377Z,28.40
2022-08-23T12:35:48.675Z,28.20
2022-08-23T12:38:40.304Z,27.90
2022-08-23T12:41:29.620Z,27.80
2022-08-23T12:44:21.275Z,27.60
2022-08-23T12:47:14.014Z,27.50
2022-08-23T12:50:03.148Z,27.10
2022-08-23T12:52:59.397Z,27.40
2022-08-23T12:55:48.581Z,27.60
2022-08-23T12:58:38.320Z,27.50
2022-08-23T13:01:30.102Z,27.60
2022-08-23T13:04:18.678Z,27.70
2022-08-23T13:07:08.336Z,27.60
2022-08-23T13:09:58.004Z,27.60
2022-08-23T13:12:45.748Z,27.50
2022-08-23T13:15:40.515Z,27.90
2022-08-23T13:18:31.067Z,28.30
2022-08-23T13:21:29.522Z,28.60
2022-08-23T13:24:38.055Z,28.60
2022-08-23T13:27:34.653Z,28.70
2022-08-23T13:30:27.693Z,28.90
2022-08-23T13:33:19.053Z,29.10
2022-08-23T13:36:13.325Z,29.20
2022-08-23T13:39:06.424Z,29.20
2022-08-23T13:41:56.247Z,29.20
2022-08-23T13:44:45.880Z,29.30
2022-08-23T13:47:37.165Z,29.10
2022-08-23T13:50:26.573Z,29.10
2022-08-23T13:53:15.429Z,29.40
2022-08-23T13:56:08.502Z,29.70
2022-08-23T13:58:57.026Z,29.70
2022-08-23T14:01:46.813Z,29.60
2022-08-23T14:04:35.340Z,29.60
2022-08-23T14:07:23.896Z,29.70
2022-08-23T14:10:11.612Z,29.90
2022-08-23T14:13:00.834Z,30.00
2022-08-23T14:15:56.517Z,30.00
2022-08-23T14:21:56.321Z,30.00
2022-08-23T14:24:45.407Z,30.20
2022-08-23T14:27:33.177Z,30.00
2022-08-23T14:30:24.850Z,29.90
2022-08-23T14:33:17.317Z,29.90
2022-08-23T14:36:07.759Z,30.00
2022-08-23T14:38:56.685Z,30.00
2022-08-23T14:41:46.282Z,29.90
2022-08-23T14:44:36.762Z,30.00
2022-08-23T14:47:24.640Z,29.90
2022-08-23T14:50:14.146Z,29.80
2022-08-23T14:53:04.047Z,29.90
2022-08-23T14:56:12.326Z,29.90
2022-08-23T14:59:01.393Z,30.00
2022-08-23T15:01:49.902Z,30.00
2022-08-23T15:04:37.702Z,30.00
2022-08-23T15:07:25.627Z,30.10
2022-08-23T15:13:32.407Z,29.90
2022-08-23T15:16:23.314Z,29.90
2022-08-23T15:19:11.100Z,29.80
2022-08-23T15:22:03.585Z,29.80
2022-08-23T15:25:02.385Z,29.70
2022-08-23T15:27:51.839Z,29.60
2022-08-23T15:30:39.835Z,29.60
2022-08-23T15:33:30.822Z,29.70
2022-08-23T15:36:18.738Z,29.70
2022-08-23T15:39:06.143Z,29.70
2022-08-23T15:41:54.114Z,29.70
2022-08-23T15:44:42.853Z,29.70
2022-08-23T15:47:32.603Z,29.60
2022-08-23T15:50:21.655Z,29.40
2022-08-23T15:53:09.250Z,29.50
2022-08-23T15:55:59.234Z,29.40
2022-08-23T15:58:50.496Z,29.20
2022-08-23T16:01:39.283Z,29.30
2022-08-23T16:04:27.314Z,29.50
2022-08-23T16:07:23.728Z,29.40
2022-08-23T16:10:14.628Z,29.30
2022-08-23T16:13:03.767Z,29.10
2022-08-23T16:15:51.701Z,29.00
2022-08-23T16:18:40.927Z,29.00
2022-08-23T16:21:30.031Z,28.90
2022-08-23T16:24:17.102Z,28.90
2022-08-23T16:27:07.449Z,29.00
2022-08-23T16:29:55.675Z,29.00
2022-08-23T16:32:43.351Z,28.90
2022-08-23T16:35:32.025Z,28.60
2022-08-23T16:38:19.748Z,28.60
2022-08-23T16:41:08.576Z,28.70
2022-08-23T16:43:56.057Z,28.60
2022-08-23T16:46:44.153Z,28.50
2022-08-23T16:49:33.859Z,28.40
2022-08-23T16:52:25.937Z,28.40
2022-08-23T16:55:22.584Z,28.40
2022-08-23T16:58:09.652Z,28.30
2022-08-23T17:00:57.179Z,28.30
2022-08-23T17:03:44.974Z,28.30
2022-08-23T17:06:32.663Z,28.20
2022-08-23T17:09:22.291Z,28.10
2022-08-23T17:12:10.223Z,27.90
2022-08-23T17:14:59.293Z,27.90
2022-08-23T17:17:47.198Z,27.80
2022-08-23T17:20:35.789Z,27.80
2022-08-23T17:23:23.737Z,27.70
2022-08-23T17:26:13.129Z,27.70
2022-08-23T17:29:01.783Z,27.60
2022-08-23T17:31:49.598Z,27.50
2022-08-23T17:34:39.272Z,27.50
2022-08-23T17:37:27.314Z,27.30
2022-08-23T17:40:16.269Z,27.50
2022-08-23T17:43:12.154Z,27.50
2022-08-23T17:45:59.337Z,27.40
2022-08-23T17:48:47.329Z,27.40
2022-08-23T17:51:35.630Z,27.30
2022-08-23T17:54:22.727Z,27.20
2022-08-23T17:57:12.450Z,26.90
2022-08-23T18:00:03.378Z,27.10
2022-08-23T18:02:51.753Z,27.00
2022-08-23T18:05:41.179Z,27.00
2022-08-23T18:08:29.154Z,26.90
2022-08-23T18:11:17.093Z,26.70
2022-08-23T18:14:05.235Z,26.60
2022-08-23T18:16:54.002Z,26.60
2022-08-23T18:19:41.374Z,26.50
2022-08-23T18:22:29.237Z,26.30
2022-08-23T18:25:17.780Z,26.30
2022-08-23T18:28:07.051Z,26.30
2022-08-23T18:30:56.530Z,26.00
2022-08-23T18:33:47.119Z,25.90
2022-08-23T18:36:35.479Z,25.80
2022-08-23T18:39:27.647Z,25.70
2022-08-23T18:42:20.123Z,25.50
2022-08-23T18:45:08.565Z,25.40
2022-08-23T18:47:56.886Z,25.40
2022-08-23T18:50:46.330Z,25.40
2022-08-23T18:53:33.678Z,25.40
2022-08-23T18:56:21.663Z,25.40
2022-08-23T18:59:09.170Z,25.30
2022-08-23T19:01:57.379Z,25.20
2022-08-23T19:04:46.246Z,25.20
2022-08-23T19:07:35.625Z,25.10
2022-08-23T19:10:23.625Z,25.00
2022-08-23T19:13:12.159Z,24.90
2022-08-23T19:16:00.297Z,24.90
2022-08-23T19:18:48.108Z,24.80
2022-08-23T19:21:36.120Z,24.60
2022-08-23T19:24:25.102Z,24.60
2022-08-23T19:27:15.055Z,24.70
2022-08-23T19:30:03.366Z,24.50
2022-08-23T19:32:54.296Z,24.50
2022-08-23T19:35:42.363Z,24.50
2022-08-23T19:38:30.280Z,24.40
2022-08-23T19:41:22.201Z,24.20
2022-08-23T19:44:09.834Z,24.20
2022-08-23T19:46:57.808Z,24.20
2022-08-23T19:49:45.287Z,24.10
2022-08-23T19:52:32.491Z,24.10
2022-08-23T19:55:21.723Z,24.10
2022-08-23T19:58:11.585Z,24.20
2022-08-23T20:00:59.463Z,24.20
2022-08-23T20:03:47.329Z,24.20
2022-08-23T20:06:35.428Z,24.30
2022-08-23T20:09:23.888Z,24.20
2022-08-23T20:12:11.974Z,24.20
2022-08-23T20:15:01.042Z,24.10
2022-08-23T20:17:49.214Z,24.10
2022-08-23T20:20:37.083Z,24.00
2022-08-23T20:23:42.269Z,23.90
2022-08-23T20:26:30.938Z,23.90
2022-08-23T20:29:19.726Z,23.80
2022-08-23T20:32:08.839Z,23.80
2022-08-23T20:34:56.058Z,23.60
2022-08-23T20:37:44.012Z,23.60
2022-08-23T20:40:31.427Z,23.50
2022-08-23T20:43:19.081Z,23.50
2022-08-23T20:46:08.448Z,23.40
2022-08-23T20:48:58.607Z,23.30
2022-08-23T20:51:46.458Z,23.30
2022-08-23T20:54:36.005Z,23.20
2022-08-23T20:57:23.997Z,23.10
2022-08-23T21:00:16.632Z,23.00
2022-08-23T21:03:05.033Z,23.10
2022-08-23T21:06:02.219Z,23.10
2022-08-23T21:08:53.451Z,23.20
2022-08-23T21:11:42.138Z,23.10
2022-08-23T21:14:29.830Z,23.00
2022-08-23T21:17:17.583Z,23.00
2022-08-23T21:20:06.344Z,22.90
2022-08-23T21:22:56.790Z,22.80
2022-08-23T21:25:44.861Z,22.80
2022-08-23T21:28:33.755Z,22.70
2022-08-23T21:31:23.601Z,22.60
2022-08-23T21:34:11.945Z,22.50
2022-08-23T21:36:59.518Z,22.40
2022-08-23T21:39:48.985Z,22.30
2022-08-23T21:42:36.835Z,22.30
2022-08-23T21:45:24.825Z,22.20
2022-08-23T21:48:13.066Z,22.20
2022-08-23T21:51:00.839Z,22.00
2022-08-23T21:53:48.468Z,22.00
2022-08-23T21:56:37.962Z,21.90
2022-08-23T21:59:25.453Z,21.80
2022-08-23T22:02:13.524Z,21.70
2022-08-23T22:05:01.727Z,21.80
2022-08-23T22:07:49.750Z,21.80
2022-08-23T22:10:40.640Z,21.70
2022-08-23T22:13:39.236Z,21.70
2022-08-23T22:16:26.687Z,21.70
2022-08-23T22:19:15.353Z,21.60
2022-08-23T22:22:03.070Z,21.50
2022-08-23T22:24:51.222Z,21.50
2022-08-23T22:27:38.572Z,21.40
2022-08-23T22:30:28.003Z,21.30
2022-08-23T22:33:15.299Z,21.20
2022-08-23T22:36:07.166Z,21.10
2022-08-23T22:38:55.328Z,21.10
2022-08-23T22:41:43.372Z,21.00
2022-08-23T22:44:30.904Z,21.00
2022-08-23T22:47:20.389Z,20.90
2022-08-23T22:50:08.942Z,20.90
2022-08-23T22:52:56.258Z,20.90
2022-08-23T22:55:44.754Z,20.80
2022-08-23T22:58:32.160Z,20.70
2022-08-23T23:01:20.531Z,20.70
2022-08-23T23:04:10.787Z,20.60
2022-08-23T23:06:59.137Z,20.70
2022-08-23T23:09:46.701Z,20.90
2022-08-23T23:12:34.488Z,20.70
2022-08-23T23:15:21.700Z,20.60
2022-08-23T23:18:09.965Z,20.70
2022-08-23T23:21:00.422Z,20.60
2022-08-23T23:23:48.387Z,20.50
2022-08-23T23:26:35.916Z,20.60
2022-08-23T23:29:24.754Z,20.50
2022-08-23T23:32:12.350Z,20.50
2022-08-23T23:35:00.784Z,20.50
2022-08-23T23:37:53.584Z,20.60
2022-08-23T23:40:43.885Z,20.40
2022-08-23T23:43:31.753Z,20.40
2022-08-23T23:46:20.409Z,20.40
2022-08-23T23:49:08.307Z,20.30
2022-08-23T23:51:56.485Z,20.30
2022-08-23T23:54:46.408Z,20.30
2022-08-23T23:57:34.313Z,20.30
